Time;durP1;ratioP1;P1;durP2;ratioP2;P2;SDS_P1;SDS_P2;PMS_P1;PMS_P2;Temp;Humidity;BMP_temperature;BMP_pressure;BME280_temperature;BME280_humidity;BME280_pressure;Samples;Min_cycle;Max_cycle;Signal;HPM_P1;HPM_P2
2023/04/06 00:00:54;;;;;;;6.03;4.20;;;;;;;1.82;100.00;102155.00;5031727;28;20206;-63
2023/04/06 00:03:19;;;;;;;8.77;5.30;;;;;;;1.74;100.00;102145.13;5031048;28;20193;-65
2023/04/06 00:05:47;;;;;;;7.57;4.30;;;;;;;1.73;100.00;102136.66;5031207;28;20269;-64
2023/04/06 00:08:12;;;;;;;6.00;4.27;;;;;;;1.67;100.00;102131.16;5033352;28;20660;-64
2023/04/06 00:10:38;;;;;;;6.30;4.33;;;;;;;1.63;100.00;102140.91;5029749;28;20213;-64
2023/04/06 00:13:03;;;;;;;5.53;4.10;;;;;;;1.59;100.00;102137.25;5030782;28;20198;-64
2023/04/06 00:15:29;;;;;;;5.13;4.23;;;;;;;1.42;100.00;102134.25;5029545;28;20627;-64
2023/04/06 00:17:55;;;;;;;6.13;4.40;;;;;;;1.46;100.00;102134.56;5029775;28;20218;-64
2023/04/06 00:20:20;;;;;;;6.50;4.50;;;;;;;1.44;100.00;102136.13;5028344;28;20241;-64
2023/04/06 00:22:46;;;;;;;6.30;4.20;;;;;;;1.38;100.00;102139.81;5027568;28;20193;-64
2023/04/06 00:25:11;;;;;;;5.73;4.10;;;;;;;1.43;100.00;102133.47;5026903;28;20284;-65
2023/04/06 00:27:38;;;;;;;6.07;4.23;;;;;;;1.42;100.00;102131.72;5030483;28;20558;-64
2023/04/06 00:30:05;;;;;;;7.20;4.47;;;;;;;1.38;100.00;102130.59;5029325;28;20193;-64
2023/04/06 00:32:31;;;;;;;7.07;4.23;;;;;;;1.36;100.00;102128.72;5029094;28;20194;-64
2023/04/06 00:34:56;;;;;;;5.83;4.50;;;;;;;1.34;100.00;102128.63;5010279;28;20217;-64
2023/04/06 00:37:22;;;;;;;6.70;4.30;;;;;;;1.31;100.00;102128.38;5026473;28;20204;-65
2023/04/06 00:39:48;;;;;;;8.17;4.47;;;;;;;1.20;100.00;102131.72;5011619;28;20197;-64
2023/04/06 00:42:14;;;;;;;6.17;4.10;;;;;;;1.26;100.00;102123.72;5009505;28;20191;-65
2023/04/06 00:44:40;;;;;;;6.80;4.50;;;;;;;1.31;100.00;102124.97;5011316;28;20600;-64
2023/04/06 00:47:07;;;;;;;7.90;3.83;;;;;;;1.22;100.00;102121.72;5024279;28;20578;-64
2023/04/06 00:49:33;;;;;;;6.90;4.53;;;;;;;1.14;100.00;102118.63;5030739;28;20194;-64
2023/04/06 00:52:01;;;;;;;6.40;4.53;;;;;;;1.19;100.00;102117.34;5030768;28;20378;-64
2023/04/06 00:54:27;;;;;;;6.63;4.70;;;;;;;1.18;100.00;102119.72;5012307;28;20241;-65
2023/04/06 00:56:53;;;;;;;7.00;4.27;;;;;;;1.15;100.00;102117.00;5012479;28;20194;-64
2023/04/06 00:59:19;;;;;;;8.73;5.00;;;;;;;1.10;100.00;102120.81;5032405;28;20229;-64
2023/04/06 01:01:45;;;;;;;6.57;5.03;;;;;;;1.09;100.00;102111.50;5012233;28;20197;-64
2023/04/06 01:04:40;;;;;;;8.30;4.97;;;;;;;1.06;100.00;102109.59;5014557;28;20546;-64
2023/04/06 01:07:10;;;;;;;6.20;4.47;;;;;;;0.98;100.00;102107.25;5012916;28;20206;-64
2023/04/06 01:09:43;;;;;;;5.97;4.73;;;;;;;0.95;100.00;102107.91;5010903;28;20285;-64
2023/04/06 01:12:17;;;;;;;9.00;5.03;;;;;;;0.88;100.00;102109.81;5010211;28;20610;-64
2023/04/06 01:14:43;;;;;;;7.57;4.60;;;;;;;0.93;100.00;102109.44;5008982;28;20213;-64
2023/04/06 01:17:08;;;;;;;8.60;4.73;;;;;;;0.94;100.00;102097.69;5030448;28;20615;-63
2023/04/06 01:19:34;;;;;;;8.67;4.63;;;;;;;0.92;100.00;102105.13;5011693;28;20257;-64
2023/04/06 01:22:00;;;;;;;6.83;5.00;;;;;;;0.89;100.00;102094.81;5028205;28;20190;-64
2023/04/06 01:24:31;;;;;;;7.80;5.13;;;;;;;0.87;100.00;102105.56;5028699;28;20761;-64
2023/04/06 01:27:10;;;;;;;8.57;5.30;;;;;;;0.86;100.00;102102.13;5010539;28;20193;-64
2023/04/06 01:29:55;;;;;;;8.87;5.17;;;;;;;0.84;100.00;102098.63;5011436;28;20246;-64
2023/04/06 01:32:35;;;;;;;6.07;4.93;;;;;;;0.88;100.00;102095.59;5012412;28;20190;-64
2023/04/06 01:35:00;;;;;;;9.20;4.90;;;;;;;0.87;100.00;102091.28;5011739;28;20291;-64
2023/04/06 01:37:26;;;;;;;8.00;5.17;;;;;;;0.88;100.00;102095.59;5009609;28;20194;-64
2023/04/06 01:39:54;;;;;;;8.17;5.30;;;;;;;0.83;100.00;102094.31;5012189;28;20559;-66
2023/04/06 01:42:35;;;;;;;7.40;4.87;;;;;;;0.76;100.00;102096.25;4997762;28;20174;-64
2023/04/06 01:45:00;;;;;;;9.03;5.33;;;;;;;0.74;100.00;102106.25;5027975;28;20206;-64
2023/04/06 01:47:26;;;;;;;8.13;5.27;;;;;;;0.70;100.00;102101.72;5008231;28;20677;-64
2023/04/06 01:49:52;;;;;;;6.70;4.90;;;;;;;0.69;100.00;102094.03;5010828;28;20564;-65
2023/04/06 01:52:18;;;;;;;7.40;4.83;;;;;;;0.66;100.00;102092.16;5005155;28;20183;-63
2023/04/06 01:54:49;;;;;;;4.97;4.43;;;;;;;0.66;100.00;102086.22;5007391;28;21944;-64
2023/04/06 01:57:45;;;;;;;9.73;5.60;;;;;;;0.65;100.00;102090.41;5009676;28;20563;-64
2023/04/06 02:00:24;;;;;;;7.10;5.13;;;;;;;0.61;100.00;102092.53;5011665;28;20186;-64
2023/04/06 02:02:52;;;;;;;7.90;5.23;;;;;;;0.59;100.00;102087.38;5010786;28;20232;-64
2023/04/06 02:05:23;;;;;;;7.57;5.80;;;;;;;0.54;100.00;102086.16;5010783;28;20202;-64
2023/04/06 02:07:51;;;;;;;6.50;5.20;;;;;;;0.53;100.00;102089.44;5011824;28;20659;-64
2023/04/06 02:10:22;;;;;;;7.70;5.43;;;;;;;0.52;100.00;102082.63;5011201;28;20523;-64
2023/04/06 02:12:48;;;;;;;8.13;5.27;;;;;;;0.53;100.00;102084.41;5010962;28;20186;-64
2023/04/06 02:15:20;;;;;;;8.80;5.37;;;;;;;0.49;100.00;102084.06;5010984;28;20226;-64
2023/04/06 02:17:46;;;;;;;7.10;4.40;;;;;;;0.44;100.00;102081.16;5010981;28;20563;-63
2023/04/06 02:20:12;;;;;;;6.83;5.20;;;;;;;0.45;100.00;102082.03;5025530;28;20225;-64
2023/04/06 02:22:39;;;;;;;8.03;5.63;;;;;;;0.50;100.00;102083.28;5029119;28;20210;-64
2023/04/06 02:25:04;;;;;;;6.73;5.33;;;;;;;0.53;100.00;102084.41;5028966;28;20277;-64
2023/04/06 02:27:30;;;;;;;7.67;5.30;;;;;;;0.54;100.00;102077.72;5011300;28;20309;-64
2023/04/06 02:29:55;;;;;;;8.30;5.70;;;;;;;0.50;100.00;102079.09;5011518;28;20188;-65
2023/04/06 02:32:21;;;;;;;6.53;4.70;;;;;;;0.50;100.00;102076.59;5011802;28;20205;-64
2023/04/06 02:34:47;;;;;;;9.43;5.90;;;;;;;0.53;100.00;102081.88;5011031;28;20229;-64
2023/04/06 02:37:13;;;;;;;9.80;6.00;;;;;;;0.54;100.00;102082.75;5011167;28;20279;-64
2023/04/06 02:39:39;;;;;;;8.03;5.80;;;;;;;0.55;100.00;102084.53;5011545;28;20561;-64
2023/04/06 02:42:08;;;;;;;9.27;5.73;;;;;;;0.55;100.00;102082.84;4995413;28;20344;-64
2023/04/06 02:44:34;;;;;;;8.30;6.00;;;;;;;0.54;100.00;102086.16;5009938;28;20210;-64
2023/04/06 02:47:00;;;;;;;9.20;5.53;;;;;;;0.52;100.00;102080.97;5010729;28;20231;-64
2023/04/06 02:49:26;;;;;;;9.27;6.07;;;;;;;0.46;100.00;102076.25;5011278;28;20277;-64
2023/04/06 02:51:55;;;;;;;10.67;6.03;;;;;;;0.42;100.00;102082.69;5010963;28;20186;-64
2023/04/06 02:54:25;;;;;;;6.67;5.63;;;;;;;0.40;100.00;102085.84;5009274;28;20675;-64
2023/04/06 02:56:50;;;;;;;8.27;5.87;;;;;;;0.39;100.00;102089.97;4994405;28;20194;-64
2023/04/06 02:59:16;;;;;;;7.40;5.67;;;;;;;0.43;100.00;102083.53;5010975;28;20672;-63
2023/04/06 03:01:49;;;;;;;7.23;5.60;;;;;;;0.39;100.00;102089.97;5010026;28;20182;-65
2023/04/06 03:04:15;;;;;;;8.20;5.90;;;;;;;0.33;100.00;102076.91;5009445;28;20923;-64
2023/04/06 03:06:40;;;;;;;9.47;5.80;;;;;;;0.27;100.00;102078.94;4988835;28;20189;-64
2023/04/06 03:09:16;;;;;;;10.50;6.23;;;;;;;0.26;100.00;102077.19;5007140;28;20209;-63
2023/04/06 03:11:43;;;;;;;9.67;6.43;;;;;;;0.19;100.00;102073.28;5011002;28;20193;-64
2023/04/06 03:14:09;;;;;;;9.30;6.33;;;;;;;0.17;100.00;102073.91;5010493;28;20465;-64
2023/04/06 03:16:34;;;;;;;8.93;5.90;;;;;;;0.13;100.00;102071.91;5009905;28;20674;-65
2023/04/06 03:19:01;;;;;;;8.77;6.23;;;;;;;0.15;100.00;102072.94;5010698;28;20194;-64
2023/04/06 03:21:27;;;;;;;8.23;6.00;;;;;;;0.12;100.00;102077.72;5010665;28;20186;-64
2023/04/06 03:23:54;;;;;;;9.30;6.40;;;;;;;0.12;100.00;102075.19;5011784;28;20210;-64
2023/04/06 03:26:19;;;;;;;13.00;6.20;;;;;;;0.16;100.00;102069.66;5031540;28;20233;-64
2023/04/06 03:28:45;;;;;;;8.27;6.47;;;;;;;0.09;100.00;102074.94;5015150;28;20196;-64
2023/04/06 03:31:10;;;;;;;8.77;6.40;;;;;;;0.10;100.00;102072.56;5014609;28;20221;-64
2023/04/06 03:33:52;;;;;;;8.70;6.07;;;;;;;0.13;100.00;102076.94;5011772;28;20190;-64
2023/04/06 03:36:22;;;;;;;9.50;6.37;;;;;;;0.11;100.00;102076.81;5013602;28;20198;-64
2023/04/06 03:38:48;;;;;;;10.07;6.70;;;;;;;0.11;100.00;102075.97;5032513;28;20183;-64
2023/04/06 03:41:14;;;;;;;8.33;6.03;;;;;;;0.07;100.00;102081.50;5014562;28;20186;-64
2023/04/06 03:43:44;;;;;;;11.27;7.20;;;;;;;0.03;100.00;102074.47;4998002;28;20187;-64
2023/04/06 03:46:10;;;;;;;10.43;6.37;;;;;;;-0.03;100.00;102074.84;5013643;28;20483;-64
2023/04/06 03:48:36;;;;;;;8.03;6.47;;;;;;;-0.06;100.00;102081.25;5032086;28;20501;-64
2023/04/06 03:51:04;;;;;;;10.00;7.10;;;;;;;-0.06;100.00;102076.22;5011831;28;20726;-63
2023/04/06 03:53:30;;;;;;;8.43;6.10;;;;;;;-0.12;100.00;102080.78;5014340;28;20440;-64
2023/04/06 03:55:55;;;;;;;10.33;6.80;;;;;;;-0.12;100.00;102083.28;5013834;28;20587;-63
2023/04/06 03:58:21;;;;;;;10.50;6.87;;;;;;;-0.13;100.00;102079.88;5032113;28;20266;-64
2023/04/06 04:00:46;;;;;;;9.57;6.40;;;;;;;-0.13;100.00;102087.44;5027158;28;20182;-64
2023/04/06 04:03:12;;;;;;;9.77;6.50;;;;;;;-0.17;100.00;102080.38;5012935;28;20672;-64
2023/04/06 04:05:37;;;;;;;10.93;7.30;;;;;;;-0.17;100.00;102075.34;5013673;28;20206;-64
2023/04/06 04:08:03;;;;;;;10.60;7.60;;;;;;;-0.15;100.00;102080.53;5013786;28;20186;-63
2023/04/06 04:10:30;;;;;;;12.23;6.87;;;;;;;-0.18;100.00;102081.16;5013351;28;20537;-64
2023/04/06 04:12:55;;;;;;;9.13;6.50;;;;;;;-0.18;100.00;102077.78;5031818;28;20455;-64
2023/04/06 04:15:21;;;;;;;13.90;7.30;;;;;;;-0.17;100.00;102082.03;5013679;28;20210;-65
2023/04/06 04:17:49;;;;;;;10.93;7.13;;;;;;;-0.17;100.00;102077.00;5013511;28;20272;-64
2023/04/06 04:20:16;;;;;;;10.00;6.90;;;;;;;-0.24;100.00;102080.66;5013479;28;20429;-64
2023/04/06 04:22:42;;;;;;;11.67;6.50;;;;;;;-0.25;100.00;102085.56;5013615;28;20209;-64
2023/04/06 04:25:09;;;;;;;12.40;7.47;;;;;;;-0.25;100.00;102088.97;5012142;28;20317;-64
2023/04/06 04:27:39;;;;;;;12.13;7.27;;;;;;;-0.24;100.00;102089.84;5013190;28;20443;-64
2023/04/06 04:30:06;;;;;;;13.60;7.77;;;;;;;-0.28;100.00;102087.81;5013343;28;20544;-64
2023/04/06 04:32:32;;;;;;;11.87;7.77;;;;;;;-0.28;100.00;102100.41;5013558;28;20651;-64
2023/04/06 04:35:00;;;;;;;10.00;7.40;;;;;;;-0.28;100.00;102091.22;5012437;28;20833;-64
2023/04/06 04:37:36;;;;;;;9.73;6.80;;;;;;;-0.31;100.00;102100.16;5012033;28;20226;-64
2023/04/06 04:40:03;;;;;;;10.93;6.73;;;;;;;-0.30;100.00;102099.41;5013243;28;20214;-64
2023/04/06 04:42:34;;;;;;;10.97;6.90;;;;;;;-0.33;100.00;102092.50;5028804;28;20197;-64
2023/04/06 04:45:00;;;;;;;12.13;7.43;;;;;;;-0.34;100.00;102098.28;5012213;28;20901;-64
2023/04/06 04:47:35;;;;;;;13.30;7.37;;;;;;;-0.34;100.00;102094.88;5012048;28;21178;-64
2023/04/06 04:50:00;;;;;;;10.57;7.33;;;;;;;-0.32;100.00;102099.28;5013147;28;20437;-64
2023/04/06 04:52:26;;;;;;;11.23;7.10;;;;;;;-0.34;100.00;102103.31;5013018;28;20186;-64
2023/04/06 04:55:17;;;;;;;14.30;7.77;;;;;;;-0.34;100.00;102097.38;5025810;28;20759;-63
2023/04/06 04:57:46;;;;;;;15.53;8.73;;;;;;;-0.33;100.00;102106.69;5030662;28;20426;-64
2023/04/06 05:00:12;;;;;;;12.37;8.63;;;;;;;-0.32;100.00;102098.41;5012462;28;20619;-63
2023/04/06 05:02:41;;;;;;;14.30;8.83;;;;;;;-0.41;100.00;102098.53;5011695;28;20198;-64
2023/04/06 05:05:14;;;;;;;10.87;8.50;;;;;;;-0.37;100.00;102095.50;5011739;28;20211;-64
2023/04/06 05:07:40;;;;;;;13.93;8.10;;;;;;;-0.37;100.00;102098.03;5012959;28;20236;-64
2023/04/06 05:10:09;;;;;;;13.13;8.00;;;;;;;-0.34;100.00;102095.78;5011651;28;20264;-63
2023/04/06 05:12:42;;;;;;;12.73;9.07;;;;;;;-0.32;100.00;102099.28;5012083;28;20182;-65
2023/04/06 05:15:10;;;;;;;17.63;9.53;;;;;;;-0.29;100.00;102098.66;5009812;28;20282;-64
2023/04/06 05:17:36;;;;;;;16.37;8.37;;;;;;;-0.26;100.00;102099.78;5012357;28;21031;-64
2023/04/06 05:20:02;;;;;;;18.53;9.97;;;;;;;-0.26;100.00;102102.28;5011019;28;20186;-64
2023/04/06 05:22:32;;;;;;;18.67;9.13;;;;;;;-0.18;100.00;102101.28;5012887;28;20640;-64
2023/04/06 05:25:04;;;;;;;25.77;9.93;;;;;;;-0.15;100.00;102103.16;5012435;28;20211;-64
2023/04/06 05:27:30;;;;;;;17.60;9.43;;;;;;;-0.11;100.00;102103.56;5012577;28;20202;-64
2023/04/06 05:29:57;;;;;;;24.50;9.47;;;;;;;-0.09;100.00;102107.06;5012028;28;20185;-64
2023/04/06 05:32:25;;;;;;;17.90;8.40;;;;;;;-0.01;100.00;102105.16;5032535;28;20199;-64
2023/04/06 05:34:51;;;;;;;15.50;8.83;;;;;;;0.08;100.00;102100.88;5011697;28;20214;-64
2023/04/06 05:37:17;;;;;;;21.43;8.57;;;;;;;0.17;100.00;102096.56;5029454;28;20190;-64
2023/04/06 05:39:42;;;;;;;13.43;8.30;;;;;;;0.31;100.00;102100.22;5030098;28;20659;-64
2023/04/06 05:42:08;;;;;;;25.60;9.70;;;;;;;0.43;100.00;102098.66;4994797;28;20261;-64
2023/04/06 05:44:55;;;;;;;27.53;9.40;;;;;;;0.57;100.00;102107.41;5011955;28;20198;-64
2023/04/06 05:47:21;;;;;;;45.27;9.73;;;;;;;0.65;100.00;102097.06;5006838;28;20190;-64
2023/04/06 05:49:52;;;;;;;30.23;8.53;;;;;;;0.84;100.00;102105.31;5011956;28;20213;-64
2023/04/06 05:52:35;;;;;;;16.73;8.23;;;;;;;1.02;100.00;102099.16;5012151;28;20194;-65
2023/04/06 05:55:01;;;;;;;10.67;7.70;;;;;;;1.20;100.00;102100.56;5028150;28;20300;-64
2023/04/06 05:57:26;;;;;;;13.00;8.40;;;;;;;1.35;100.00;102086.59;5029149;28;20194;-64
2023/04/06 05:59:53;;;;;;;10.73;7.83;;;;;;;1.45;100.00;102092.47;5010701;28;20232;-64
2023/04/06 06:02:20;;;;;;;15.93;8.67;;;;;;;1.58;100.00;102094.25;5010344;28;20189;-65
2023/04/06 06:04:49;;;;;;;13.67;7.43;;;;;;;1.69;100.00;102094.28;5006919;28;20206;-64
2023/04/06 06:07:16;;;;;;;10.17;7.00;;;;;;;1.80;100.00;102098.50;5008126;28;20197;-65
2023/04/06 06:09:47;;;;;;;10.27;7.63;;;;;;;1.83;100.00;102096.19;5012139;28;20244;-64
2023/04/06 06:12:21;;;;;;;11.40;7.37;;;;;;;1.95;100.00;102102.16;5009286;28;20190;-64
2023/04/06 06:14:48;;;;;;;10.13;7.33;;;;;;;2.10;100.00;102102.34;5008870;28;20307;-65
2023/04/06 06:17:15;;;;;;;10.93;7.77;;;;;;;2.32;100.00;102093.03;5011319;28;20187;-65
2023/04/06 06:19:41;;;;;;;11.50;7.60;;;;;;;2.48;100.00;102099.31;5011123;28;20186;-65
2023/04/06 06:22:07;;;;;;;12.27;8.13;;;;;;;2.57;100.00;102094.03;5011574;28;20182;-65
2023/04/06 06:24:36;;;;;;;10.80;7.70;;;;;;;2.68;100.00;102098.19;5025629;28;20657;-65
2023/04/06 06:27:02;;;;;;;12.07;8.00;;;;;;;2.82;100.00;102093.34;5008470;28;20192;-64
2023/04/06 06:29:30;;;;;;;9.90;7.90;;;;;;;2.95;100.00;102090.88;5008869;28;20190;-64
2023/04/06 06:31:58;;;;;;;10.40;7.70;;;;;;;3.12;100.00;102092.06;5011388;28;20282;-64
2023/04/06 06:34:24;;;;;;;11.53;7.80;;;;;;;3.10;100.00;102089.41;5010670;28;20210;-65
2023/04/06 06:36:51;;;;;;;17.53;8.37;;;;;;;3.32;100.00;102079.97;5010994;28;20189;-64
2023/04/06 06:39:17;;;;;;;12.70;7.80;;;;;;;3.39;100.00;102064.44;5011046;28;20225;-64
2023/04/06 06:41:42;;;;;;;10.97;7.40;;;;;;;3.43;100.00;102041.09;5010841;28;20281;-64
2023/04/06 06:44:08;;;;;;;11.90;7.10;;;;;;;3.68;100.00;102005.59;5009780;28;20179;-65
2023/04/06 06:46:34;;;;;;;9.97;7.37;;;;;;;3.75;100.00;101987.47;5010644;28;20265;-64
2023/04/06 06:49:00;;;;;;;11.43;7.37;;;;;;;3.95;100.00;101975.31;5009106;28;20244;-64
2023/04/06 06:51:25;;;;;;;9.70;7.40;;;;;;;4.19;100.00;101954.03;5008666;28;20197;-64
2023/04/06 06:53:51;;;;;;;11.53;6.60;;;;;;;4.37;100.00;101936.59;5008510;28;20547;-65
2023/04/06 06:56:17;;;;;;;9.33;6.63;;;;;;;4.62;100.00;101910.28;5024013;28;20222;-65
2023/04/06 06:58:42;;;;;;;12.00;6.70;;;;;;;4.77;100.00;101882.38;5011023;28;20303;-65
2023/04/06 07:01:08;;;;;;;11.97;6.40;;;;;;;4.90;100.00;101867.09;5009333;28;20226;-65
2023/04/06 07:03:34;;;;;;;10.30;6.20;;;;;;;5.06;100.00;101813.91;5028336;28;20563;-65
2023/04/06 07:06:00;;;;;;;8.83;6.63;;;;;;;5.19;100.00;101809.59;5009934;28;20230;-65
2023/04/06 07:08:25;;;;;;;9.03;6.10;;;;;;;5.33;100.00;101811.25;5027980;28;20190;-65
2023/04/06 07:10:52;;;;;;;10.57;6.53;;;;;;;5.37;100.00;101743.72;5010724;28;20273;-65
2023/04/06 07:13:22;;;;;;;6.93;5.43;;;;;;;5.26;100.00;101760.06;5011173;28;20226;-64
2023/04/06 07:15:49;;;;;;;7.80;5.70;;;;;;;5.44;100.00;101741.59;5009723;28;20218;-66
2023/04/06 07:18:16;;;;;;;9.03;5.80;;;;;;;5.52;100.00;101749.66;5010817;28;20663;-66
2023/04/06 07:20:42;;;;;;;10.13;6.57;;;;;;;5.82;100.00;101764.00;5010626;28;20202;-66
2023/04/06 07:23:07;;;;;;;7.57;6.10;;;;;;;5.93;100.00;101715.50;5004516;28;20337;-66
2023/04/06 07:25:33;;;;;;;8.70;6.30;;;;;;;6.09;100.00;101742.56;5026947;28;20260;-66
2023/04/06 07:27:58;;;;;;;8.77;5.60;;;;;;;6.27;100.00;101696.06;5007910;28;20200;-66
2023/04/06 07:30:28;;;;;;;7.33;5.43;;;;;;;6.38;100.00;101711.84;4994276;28;20565;-66
2023/04/06 07:32:58;;;;;;;9.57;5.80;;;;;;;6.54;100.00;101722.00;5023568;28;20236;-66
2023/04/06 07:35:26;;;;;;;8.03;6.10;;;;;;;6.83;100.00;101719.19;5011942;28;20244;-66
2023/04/06 07:37:53;;;;;;;7.17;5.20;;;;;;;6.74;100.00;101723.84;5010412;28;20186;-67
2023/04/06 07:40:19;;;;;;;7.67;5.90;;;;;;;7.00;100.00;101743.81;5010372;28;20664;-66
2023/04/06 07:42:45;;;;;;;7.10;5.23;;;;;;;7.26;100.00;101655.06;5015396;28;20194;-66
2023/04/06 07:45:11;;;;;;;7.97;5.20;;;;;;;7.57;100.00;101522.25;5010676;28;20207;-66
2023/04/06 07:47:37;;;;;;;7.90;4.40;;;;;;;7.65;100.00;101516.66;5012896;28;20197;-66
2023/04/06 07:50:03;;;;;;;6.30;4.97;;;;;;;7.71;100.00;101522.03;5011821;28;20182;-66
2023/04/06 07:52:31;;;;;;;5.93;4.87;;;;;;;7.71;100.00;101516.94;5024115;28;20183;-66
2023/04/06 07:54:58;;;;;;;6.97;4.80;;;;;;;8.08;100.00;101494.66;5014532;28;20835;-67
2023/04/06 07:57:23;;;;;;;6.87;4.83;;;;;;;8.30;100.00;101484.50;5029355;28;20274;-67
2023/04/06 07:59:49;;;;;;;6.30;4.20;;;;;;;8.24;100.00;101479.19;5026366;28;20609;-67
2023/04/06 08:02:15;;;;;;;7.53;4.83;;;;;;;8.53;100.00;101445.41;5024257;28;20629;-66
2023/04/06 08:04:40;;;;;;;8.10;4.53;;;;;;;8.55;100.00;101430.16;5025601;28;20755;-65
2023/04/06 08:07:06;;;;;;;5.23;4.70;;;;;;;8.49;100.00;101432.50;5028290;28;20282;-66
2023/04/06 08:09:32;;;;;;;6.30;4.90;;;;;;;8.63;100.00;101472.16;5031811;28;20183;-66
2023/04/06 08:11:57;;;;;;;8.07;4.70;;;;;;;8.98;100.00;101416.44;5034350;28;20286;-66
2023/04/06 08:14:23;;;;;;;10.37;5.23;;;;;;;8.92;94.70;101320.84;5027327;28;20225;-65
2023/04/06 08:16:48;;;;;;;7.10;4.57;;;;;;;9.13;94.84;101321.56;5025653;28;20640;-66
2023/04/06 08:19:16;;;;;;;6.57;4.20;;;;;;;9.15;95.98;101313.16;5027872;28;20189;-65
2023/04/06 08:21:43;;;;;;;6.07;5.00;;;;;;;9.51;92.11;101301.53;5030603;28;20194;-65
2023/04/06 08:24:08;;;;;;;7.07;4.70;;;;;;;9.39;94.64;101300.25;5030841;28;20191;-66
2023/04/06 08:26:34;;;;;;;7.53;5.27;;;;;;;9.27;95.60;101318.63;5030780;28;20686;-66
2023/04/06 08:29:00;;;;;;;6.67;5.10;;;;;;;9.64;85.89;101257.59;5029634;28;20279;-66
2023/04/06 08:31:26;;;;;;;8.47;5.87;;;;;;;9.92;82.78;101210.69;5025718;28;20191;-66
2023/04/06 08:33:51;;;;;;;9.03;6.07;;;;;;;9.90;76.96;101181.66;5038841;28;20189;-67
2023/04/06 08:36:22;;;;;;;8.53;5.87;;;;;;;10.33;74.80;101161.50;5025838;28;20345;-67
2023/04/06 08:38:48;;;;;;;7.77;5.80;;;;;;;10.33;72.24;101158.94;5032724;28;20197;-67
2023/04/06 08:41:16;;;;;;;8.63;5.43;;;;;;;10.59;72.19;101152.75;5030206;28;20332;-66
2023/04/06 08:44:02;;;;;;;9.53;4.90;;;;;;;10.70;74.46;101188.03;5029741;28;20186;-67
2023/04/06 08:46:31;;;;;;;5.73;4.93;;;;;;;11.25;60.88;101080.81;5030799;28;20266;-67
2023/04/06 08:49:02;;;;;;;6.90;5.13;;;;;;;11.08;63.37;101163.31;5036095;28;20821;-67
2023/04/06 08:51:29;;;;;;;15.60;5.83;;;;;;;11.44;61.67;101169.25;5033886;28;20195;-67
2023/04/06 08:53:56;;;;;;;9.17;5.70;;;;;;;11.09;58.63;101168.47;5034207;28;20199;-66
2023/04/06 08:56:23;;;;;;;8.17;4.87;;;;;;;11.00;60.99;101216.06;5026001;28;20356;-70
2023/04/06 08:58:49;;;;;;;6.60;5.03;;;;;;;11.56;62.42;101284.94;5013504;28;20187;-67
2023/04/06 09:01:17;;;;;;;6.90;4.77;;;;;;;11.67;57.54;101275.78;5026451;28;20187;-67
2023/04/06 09:03:44;;;;;;;6.60;4.73;;;;;;;11.39;56.51;101455.47;5031000;28;20190;-66
2023/04/06 09:06:11;;;;;;;6.90;5.17;;;;;;;11.68;59.37;101519.53;5037704;28;20394;-65
2023/04/06 09:08:40;;;;;;;7.90;5.20;;;;;;;11.80;58.11;101519.81;5030731;28;20324;-67
2023/04/06 09:11:06;;;;;;;6.17;4.63;;;;;;;12.11;56.54;101530.03;5026264;28;20183;-66
2023/04/06 09:13:31;;;;;;;5.80;4.67;;;;;;;12.06;54.64;101531.63;5028385;28;20214;-67
2023/04/06 09:16:06;;;;;;;5.07;4.37;;;;;;;12.20;53.11;101550.78;5021294;28;20694;-67
2023/04/06 09:18:32;;;;;;;5.57;4.57;;;;;;;12.62;49.90;101535.47;5033624;28;20201;-66
2023/04/06 09:21:05;;;;;;;6.33;4.07;;;;;;;12.50;46.23;101574.59;5016048;28;20190;-67
2023/04/06 09:23:31;;;;;;;7.33;4.53;;;;;;;12.62;46.20;101615.13;5029189;28;20182;-66
2023/04/06 09:26:12;;;;;;;7.20;4.30;;;;;;;12.70;44.86;101606.78;5028189;28;20273;-66
2023/04/06 09:28:51;;;;;;;6.67;3.13;;;;;;;12.64;42.12;101634.03;5029837;28;20354;-66
2023/04/06 09:31:23;;;;;;;7.10;3.60;;;;;;;12.73;43.53;101653.09;5027435;28;20264;-66
2023/04/06 09:33:49;;;;;;;4.47;2.87;;;;;;;12.17;40.16;101639.72;5030485;28;20194;-67
2023/04/06 09:36:17;;;;;;;4.43;3.33;;;;;;;11.93;40.69;101657.06;5029247;28;20217;-67
2023/04/06 09:38:57;;;;;;;4.00;3.20;;;;;;;12.61;39.89;101664.78;5034183;28;20662;-67
2023/04/06 09:41:34;;;;;;;3.90;3.10;;;;;;;12.44;40.60;101658.41;5034127;28;20179;-67
2023/04/06 09:44:05;;;;;;;3.80;3.13;;;;;;;12.65;39.88;101651.19;5031941;28;20527;-67
2023/04/06 09:46:36;;;;;;;5.53;4.07;;;;;;;12.41;40.57;101669.47;5027343;28;20186;-67
2023/04/06 09:49:03;;;;;;;5.60;4.10;;;;;;;12.31;39.88;101644.34;5007260;28;20239;-67
2023/04/06 09:51:35;;;;;;;4.73;3.60;;;;;;;12.52;40.68;101665.44;5028107;28;20190;-66
2023/04/06 09:54:03;;;;;;;6.17;3.87;;;;;;;12.23;40.01;101648.44;5025804;28;20910;-67
2023/04/06 09:56:33;;;;;;;5.40;4.10;;;;;;;13.05;40.23;101668.44;5028591;28;20237;-67
2023/04/06 09:59:05;;;;;;;5.73;4.23;;;;;;;12.88;38.80;101639.75;5032688;28;20279;-67
2023/04/06 10:01:33;;;;;;;7.20;4.60;;;;;;;13.09;39.13;101660.84;5029545;28;20198;-67
2023/04/06 10:04:07;;;;;;;6.60;4.57;;;;;;;13.75;38.75;101659.66;5029595;28;20186;-67
2023/04/06 10:06:35;;;;;;;7.57;4.70;;;;;;;14.15;37.29;101636.41;5028538;28;20190;-67
2023/04/06 10:09:04;;;;;;;9.80;4.80;;;;;;;14.29;36.68;101636.66;5031408;28;20186;-67
2023/04/06 10:11:30;;;;;;;6.63;4.77;;;;;;;14.13;37.56;101657.81;5033167;28;20187;-67
2023/04/06 10:13:56;;;;;;;7.13;4.27;;;;;;;14.34;35.99;101648.78;5011292;28;20209;-67
2023/04/06 10:16:24;;;;;;;6.50;4.73;;;;;;;13.89;36.34;101662.50;5010205;28;20211;-67
2023/04/06 10:18:56;;;;;;;5.87;4.30;;;;;;;14.14;36.93;101662.97;5026015;28;20269;-67
2023/04/06 10:21:26;;;;;;;6.10;4.53;;;;;;;14.01;36.00;101640.44;5029853;28;20185;-67
2023/04/06 10:23:55;;;;;;;7.70;4.80;;;;;;;14.23;37.56;101686.34;5034270;28;20191;-67
2023/04/06 10:26:21;;;;;;;6.07;5.03;;;;;;;14.17;36.17;101649.28;5026668;28;20280;-68
2023/04/06 10:28:48;;;;;;;8.70;5.10;;;;;;;13.93;36.61;101659.13;5025500;28;20808;-68
2023/04/06 10:31:14;;;;;;;6.90;5.00;;;;;;;14.27;38.40;101693.31;5027477;28;20285;-65
2023/04/06 10:33:41;;;;;;;5.70;4.60;;;;;;;14.52;36.80;101654.25;5029791;28;20194;-66
2023/04/06 10:36:14;;;;;;;5.87;4.50;;;;;;;14.70;37.55;101677.75;5034333;28;20226;-68
2023/04/06 10:38:41;;;;;;;8.47;4.90;;;;;;;15.08;37.51;101655.97;5024345;28;20187;-68
2023/04/06 10:41:08;;;;;;;8.37;4.93;;;;;;;15.57;35.84;101653.19;5028748;28;20235;-67
2023/04/06 10:43:36;;;;;;;7.23;5.17;;;;;;;15.46;35.86;101654.81;5026547;28;20183;-68
2023/04/06 10:46:02;;;;;;;6.43;4.80;;;;;;;15.50;35.69;101653.13;5027081;28;20742;-68
2023/04/06 10:48:46;;;;;;;5.67;4.93;;;;;;;15.15;37.05;101680.16;5031370;28;20193;-66
2023/04/06 10:51:15;;;;;;;9.63;5.83;;;;;;;15.49;35.92;101654.84;5026506;28;20570;-68
2023/04/06 10:53:43;;;;;;;5.83;4.73;;;;;;;15.26;37.24;101679.47;5013678;28;20198;-65
2023/04/06 10:56:14;;;;;;;7.20;5.57;;;;;;;15.20;35.65;101663.03;5029637;28;20261;-68
2023/04/06 10:58:51;;;;;;;14.63;5.83;;;;;;;15.55;35.24;101648.88;5028679;28;20182;-66
2023/04/06 11:01:17;;;;;;;8.93;5.27;;;;;;;14.86;35.58;101651.34;5023896;28;20187;-66
2023/04/06 11:03:47;;;;;;;5.80;4.83;;;;;;;15.64;35.97;101660.19;5036982;28;20228;-67
2023/04/06 11:06:23;;;;;;;7.93;5.20;;;;;;;15.34;35.94;101651.19;5024818;28;20595;-67
2023/04/06 11:08:49;;;;;;;9.83;6.40;;;;;;;16.05;35.37;101650.31;5032127;28;20324;-68
2023/04/06 11:11:19;;;;;;;10.73;6.03;;;;;;;15.24;35.33;101667.38;5023218;28;20213;-68
2023/04/06 11:13:56;;;;;;;7.57;6.27;;;;;;;15.20;35.41;101663.03;5024488;28;20194;-68
2023/04/06 11:16:26;;;;;;;9.17;6.93;;;;;;;15.31;35.29;101645.94;5019785;28;20214;-67
2023/04/06 11:19:12;;;;;;;8.77;6.37;;;;;;;15.96;34.50;101645.03;5030411;28;20279;-67
2023/04/06 11:21:41;;;;;;;7.27;6.50;;;;;;;15.62;35.36;101650.69;5030658;28;20200;-67
2023/04/06 11:24:21;;;;;;;7.20;6.50;;;;;;;15.60;35.57;101648.09;5024110;28;20191;-68
2023/04/06 11:26:51;;;;;;;8.93;7.23;;;;;;;15.37;35.75;101643.50;5025035;28;20201;-68